Buffalo, NY

2:47 PM EST on December 28, 2014 (GMT -0500)
Cleve Hill | Change Station
CLOSE
Current Station
Personal Weather Station
Location: Cheektowaga, NY
Elevation: 686 ft
Nearby Weather Stations

Elev 686 ft 42.94 °N, 78.77 °W | Updated 7 minutes ago

Mostly Cloudy
Mostly Cloudy
36.7 °F
Feels Like 37 °F
N
2.0
Wind Variable Wind from West
Gusts 5.0 mph

Today
High -- | Low -- °F
--% Chance of Precip.
Yesterday
High -- | Low -- °F
Precip. -- in
7:45 AM 4:47 PM
Waxing Crescent, 50% visible
Pressure 30.03 in
Visibility 10.0 miles
Clouds Scattered Clouds 2800 ft
Mostly Cloudy 3400 ft
Mostly Cloudy 20000 ft
Windchill 37 °F
Dew Point 26 °F
Humidity 65%
Rainfall 0.36 in
Snow Depth Not available.
UV 1 out of 12
Pollen .10 out of 12
Air Quality Not available.
Flu Activity Not available.
METAR KBUF 281854Z 28008KT 10SM SCT028 BKN034 BKN200 02/M06 A3001 RMK AO2 SLP167 T00171056 $

More Conditions Fewer Conditions

Pressure 30.03 in
Visibility 10.0 miles
Clouds Scattered Clouds 2800 ft
Mostly Cloudy 3400 ft
Mostly Cloudy 20000 ft
Windchill 37 °F
Dew Point 26 °F
Humidity 65%
Rainfall 0.36 in
Snow Depth Not available.
UV 1 out of 12
Pollen .10 out of 12
Air Quality Not available.
Flu Activity Not available.
METAR KBUF 281854Z 28008KT 10SM SCT028 BKN034 BKN200 02/M06 A3001 RMK AO2 SLP167 T00171056 $

More Conditions Fewer Conditions

10-Day Weather Forecast

Almanac

Astronomy

Dec. 28, 2014 Rise Set
Actual Time
Civil Twilight
Nautical Twilight
Astronomical Twilight
Moon
Length of Visible Light
Length of Day
Tomorrow will be .
, % of the Moon is Illuminated

Today's Extremes

State Highs State Lows

Community

WunderPhotos

Upload Photos

1,781,402 photos uploaded!

WunderBlogs® & News

Nearby

Air Quality

  Air Quality AQ Index Pollutant
Not available.

Snow Depth

Station Depth Elevation

Earthquake Activity

City Distance Mag. Time & Date
Minimum magnitude displayed is 2.5.

Coastal Water Temperatures

Place Temperature

Nearby Weather Stations